sensor_id;sensor_type;location;lat;lon;timestamp;pressure;altitude;pressure_sealevel;temperature;humidity
71642;BME280;60657;50.122;14.468;2023-03-20T00:01:52;98313.51743275404;;;10.975432974746319;69.38529030289159
71642;BME280;60657;50.122;14.468;2023-03-20T00:05:14;98309.37564138896;;;11.090257114518963;68.72724498359655
71642;BME280;60657;50.122;14.468;2023-03-20T00:08:31;98309.38427785158;;;11.066224155031662;68.65857938506142
71642;BME280;60657;50.122;14.468;2023-03-20T00:11:47;98325.98729504051;;;11.007476920729381;68.70626382848859
71642;BME280;60657;50.122;14.468;2023-03-20T00:15:09;98320.99435690255;;;11.012817578393225;69.1640344853895
71642;BME280;60657;50.122;14.468;2023-03-20T00:18:37;98327.61998729024;;;10.964751659418631;69.46730754558632
71642;BME280;60657;50.122;14.468;2023-03-20T00:21:54;98324.30269830002;;;11.026169222552838;69.45586327916381
71642;BME280;60657;50.122;14.468;2023-03-20T00:25:12;98332.58655252076;;;11.130312046997787;69.0896467536431
71642;BME280;60657;50.122;14.468;2023-03-20T00:28:31;98327.5959131577;;;11.157015335317006;68.7501335164416
71642;BME280;60657;50.122;14.468;2023-03-20T00:31:54;98325.10807549513;;;11.124971389333943;68.81116960402838
71642;BME280;60657;50.122;14.468;2023-03-20T00:35:15;98320.13250146332;;;11.1196307316701;68.83978027008469
71642;BME280;60657;50.122;14.468;2023-03-20T00:38:34;98314.31279625204;;;11.071564812695506;69.06103608758679
71642;BME280;60657;50.122;14.468;2023-03-20T00:41:50;98311.0251289873;;;10.978103303578237;69.42915999084458
71642;BME280;60657;50.122;14.468;2023-03-20T00:45:11;98316.85627152042;;;10.892652780956738;69.72861829556726
71642;BME280;60657;50.122;14.468;2023-03-20T00:48:31;98312.70973448128;;;10.900663767452507;70.04142824444953
71642;BME280;60657;50.122;14.468;2023-03-20T00:51:47;98310.21354478637;;;10.96742198825055;70.029983978027
71642;BME280;60657;50.122;14.468;2023-03-20T00:55:03;98310.24826035996;;;10.700389105058363;70.92645151445792
71642;BME280;60657;50.122;14.468;2023-03-20T00:58:19;98316.05379826867;;;10.823224231326769;70.71663996337834
71642;BME280;60657;50.122;14.468;2023-03-20T01:01:35;98320.2077136782;;;10.783169298847945;70.77195391775388
71642;BME280;60657;50.122;14.468;2023-03-20T01:04:51;98321.873229968;;;10.801861600671394;71.09430075532158
71642;BME280;60657;50.122;14.468;2023-03-20T01:08:10;98319.40001459363;;;10.703059433890289;72.01365682459755
71642;BME280;60657;50.122;14.468;2023-03-20T01:11:28;98329.36489802191;;;10.684367132066832;71.97169451438162
71642;BME280;60657;50.122;14.468;2023-03-20T01:14:45;98316.09722604942;;;10.569542992294195;72.46761272602426
71642;BME280;60657;50.122;14.468;2023-03-20T01:18:09;98316.10743497813;;;10.484092469672696;73.38315403982605
71642;BME280;60657;50.122;14.468;2023-03-20T01:21:28;98321.92680582746;;;10.430685893034259;73.87716487373159
71642;BME280;60657;50.122;14.468;2023-03-20T01:24:43;98312.80193084465;;;10.345235370412759;74.35782406347754
71642;BME280;60657;50.122;14.468;2023-03-20T01:28:00;98323.59370357942;;;10.321202410925459;74.60959792477303
71642;BME280;60657;50.122;14.468;2023-03-20T01:31:18;98321.10555148053;;;10.249103532463572;74.91287098496986
71642;BME280;60657;50.122;14.468;2023-03-20T01:34:33;98328.57358448782;;;10.227740901808197;75.23521782253758
71642;BME280;60657;50.122;14.468;2023-03-20T01:37:49;98321.10556519606;;;10.168993667505916;75.52323186083773
71642;BME280;60657;50.122;14.468;2023-03-20T01:41:06;98323.59360370653;;;10.152971694514385;75.33249408712902
71642;BME280;60657;50.122;14.468;2023-03-20T01:44:28;98321.10457073747;;;10.168993667505916;75.78835736629281
71642;BME280;60657;50.122;14.468;2023-03-20T01:47:46;98326.91298266816;;;10.182345311665522;75.6586556801709
71642;BME280;60657;50.122;14.468;2023-03-20T01:51:03;98323.5930836847;;;10.118257419699397;75.93522545204853
71642;BME280;60657;50.122;14.468;2023-03-20T01:54:20;98326.90879829033;;;10.078202487220572;75.98481727321278
71642;BME280;60657;50.122;14.468;2023-03-20T01:57:41;98321.10457073747;;;10.134279392690928;76.01342793926909
71642;BME280;60657;50.122;14.468;2023-03-20T02:00:58;98316.94791756768;;;9.968719005111772;76.36820019836729
71642;BME280;60657;50.122;14.468;2023-03-20T02:04:14;98308.65926919777;;;10.15030136568246;76.04966811627375
71642;BME280;60657;50.122;14.468;2023-03-20T02:07:36;98311.14647255688;;;10.094224460212104;75.91233691920348
71642;BME280;60657;50.122;14.468;2023-03-20T02:10:53;98310.31887709396;;;10.15030136568246;76.09353780422676
71642;BME280;60657;50.122;14.468;2023-03-20T02:14:12;98306.99982746052;;;10.110246433203635;77.00526436255436
71642;BME280;60657;50.122;14.468;2023-03-20T02:17:29;98321.93277634123;;;10.06485084306096;77.15403982604715
71642;BME280;60657;50.122;14.468;2023-03-20T02:20:51;98317.78107507613;;;9.982070649271378;77.31044480048828
71642;BME280;60657;50.122;14.468;2023-03-20T02:24:42;98321.10052505198;;;10.030136568245979;77.25513084611276
71642;BME280;60657;50.122;14.468;2023-03-20T02:28:21;98320.27308931053;;;10.094224460212104;76.94613565270465
71642;BME280;60657;50.122;14.468;2023-03-20T02:32:08;98317.76717120016;;;9.82719157701991;77.6919203479057
71642;BME280;60657;50.122;14.468;2023-03-20T02:35:49;98316.10729218363;;;9.877927824826429;77.78728923476005
71642;BME280;60657;50.122;14.468;2023-03-20T02:39:30;98314.45415197285;;;9.939345387960628;77.63660639353017
71642;BME280;60657;50.122;14.468;2023-03-20T02:43:02;98316.10729218363;;;9.843213550011441;77.98184176394292
71642;BME280;60657;50.122;14.468;2023-03-20T02:46:31;98315.25990088817;;;9.709697108415348;78.15159838254368
71642;BME280;60657;50.122;14.468;2023-03-20T02:50:00;98316.07023012734;;;9.624246585793848;78.46059357595178
71642;BME280;60657;50.122;14.468;2023-03-20T02:53:38;98315.23700475946;;;9.634927901121536;78.83253223468375
71642;BME280;60657;50.122;14.468;2023-03-20T02:57:06;98304.45896376131;;;9.610894941634243;78.75051499198901
71642;BME280;60657;50.122;14.468;2023-03-20T03:00:29;98310.25984786592;;;9.57885099565118;78.83443961242084
71642;BME280;60657;50.122;14.468;2023-03-20T03:03:52;98308.58634460192;;;9.51209277485313;79.12245365072098
71642;BME280;60657;50.122;14.468;2023-03-20T03:07:12;98309.38970894479;;;9.439993896391243;79.38185702296482
71642;BME280;60657;50.122;14.468;2023-03-20T03:10:32;98315.99108916771;;;9.3492027161059;79.6374456397345
71642;BME280;60657;50.122;14.468;2023-03-20T03:13:54;98312.66526233219;;;9.301136797131306;79.76142519264515
71642;BME280;60657;50.122;14.468;2023-03-20T03:17:13;98314.30543385784;;;9.277103837644006;79.9178301670863
71642;BME280;60657;50.122;14.468;2023-03-20T03:20:33;98310.13782884934;;;9.20500495918212;80.12001220721751
71642;BME280;60657;50.122;14.468;2023-03-20T03:23:53;98311.79284012922;;;9.170290684367131;80.03227283131152
71642;BME280;60657;50.122;14.468;2023-03-20T03:27:12;98309.29626653153;;;9.146257724879838;80.12573434042878
71642;BME280;60657;50.122;14.468;2023-03-20T03:30:36;98310.13224127956;;;9.170290684367131;80.06660563057908
71642;BME280;60657;50.122;14.468;2023-03-20T03:33:54;98307.64137169288;;;9.09552147707332;80.196307316701
71642;BME280;60657;50.122;14.468;2023-03-20T03:37:13;98304.35288709494;;;9.19699397268635;80.01319905394064
71642;BME280;60657;50.122;14.468;2023-03-20T03:40:40;98307.69369518316;;;9.255741206988631;79.6374456397345
71642;BME280;60657;50.122;14.468;2023-03-20T03:44:05;98304.37774030879;;;9.274433508812088;79.72899977111467
71642;BME280;60657;50.122;14.468;2023-03-20T03:47:30;98303.53288579821;;;9.229037918669412;80.05897611963073
71642;BME280;60657;50.122;14.468;2023-03-20T03:50:52;98316.75181045674;;;9.127565423056382;80.59685664148928
71642;BME280;60657;50.122;14.468;2023-03-20T03:54:13;98327.4978341838;;;9.05279621576257;80.76852063782711
71642;BME280;60657;50.122;14.468;2023-03-20T03:57:37;98331.64382409424;;;9.084840161745632;80.66361486228733
71642;BME280;60657;50.122;14.468;2023-03-20T04:01:02;98327.4978341838;;;9.036774242771038;80.8142977035172
71642;BME280;60657;50.122;14.468;2023-03-20T04:04:22;98330.76565070024;;;8.98603799496452;81.03555352101931
71642;BME280;60657;50.122;14.468;2023-03-20T04:07:43;98322.48827811323;;;9.002059967956058;81.03173876554513
71642;BME280;60657;50.122;14.468;2023-03-20T04:10:59;98340.71133280388;;;9.047455558098726;80.94209201190203
71642;BME280;60657;50.122;14.468;2023-03-20T04:14:15;98326.62699866573;;;9.023422598611432;81.18432898451209
71642;BME280;60657;50.122;14.468;2023-03-20T04:17:31;98320.86060101919;;;8.991378652628363;81.12520027466239
71642;BME280;60657;50.122;14.468;2023-03-20T04:20:47;98343.1736701661;;;8.953994048981457;81.3750667582208
71642;BME280;60657;50.122;14.468;2023-03-20T04:24:03;98344.01187333826;;;9.015411612115663;81.35027084763867
71642;BME280;60657;50.122;14.468;2023-03-20T04:27:19;98344.01187333826;;;9.002059967956058;81.40177004654002
71642;BME280;60657;50.122;14.468;2023-03-20T04:30:35;98342.32766517723;;;8.951323720149539;81.60013733119708
71642;BME280;60657;50.122;14.468;2023-03-20T04:33:51;98340.66627678838;;;8.964675364309144;81.63828488593882
71642;BME280;60657;50.122;14.468;2023-03-20T04:37:07;98342.36533637998;;;8.999389639124132;81.4189364461738
71642;BME280;60657;50.122;14.468;2023-03-20T04:40:23;98339.07150156627;;;9.0688181887541;81.31403067063401
71642;BME280;60657;50.122;14.468;2023-03-20T04:43:38;98339.90210772354;;;8.983367666132601;81.41130693522545
71642;BME280;60657;50.122;14.468;2023-03-20T04:46:54;98347.37773548513;;;9.058136873426413;81.26253147173266
71642;BME280;60657;50.122;14.468;2023-03-20T04:50:10;98340.7860169616;;;9.151598382543682;81.09277485313191
71642;BME280;60657;50.122;14.468;2023-03-20T04:53:26;98352.39499567944;;;9.175631342030975;80.95162890058747
71642;BME280;60657;50.122;14.468;2023-03-20T04:56:42;98342.47757918287;;;9.234378576333256;80.74944686045625
71642;BME280;60657;50.122;14.468;2023-03-20T05:00:02;98343.27766028358;;;9.186312657358663;80.88105592431525
71642;BME280;60657;50.122;14.468;2023-03-20T05:03:19;98354.04320173293;;;9.132906080720225;81.0813305867094
71642;BME280;60657;50.122;14.468;2023-03-20T05:06:34;98363.94928621085;;;9.0688181887541;81.37697413595788
71642;BME280;60657;50.122;14.468;2023-03-20T05:09:50;98363.11851662584;;;9.07682917524987;81.47234302281224
71642;BME280;60657;50.122;14.468;2023-03-20T05:13:08;98358.16955170449;;;9.146257724879838;81.18432898451209
71642;BME280;60657;50.122;14.468;2023-03-20T05:16:24;98363.96364700064;;;9.132906080720225;81.32547493705654
71642;BME280;60657;50.122;14.468;2023-03-20T05:19:40;98358.17641196784;;;9.16227969787137;80.97070267795834
71642;BME280;60657;50.122;14.468;2023-03-20T05:22:55;98353.22561940823;;;9.188982986190588;81.0222018768597
71642;BME280;60657;50.122;14.468;2023-03-20T05:26:11;98352.37524826724;;;9.07682917524987;81.40939955748837
71642;BME280;60657;50.122;14.468;2023-03-20T05:29:27;98356.53515980123;;;9.186312657358663;81.0222018768597
71642;BME280;60657;50.122;14.468;2023-03-20T05:32:43;98363.17399605105;;;9.226367589837494;80.8162050812543
71642;BME280;60657;50.122;14.468;2023-03-20T05:35:59;98361.52566550983;;;9.2397192339971;80.67124437323568
71642;BME280;60657;50.122;14.468;2023-03-20T05:39:15;98364.0177006048;;;9.279774166475931;80.54154268711376
71642;BME280;60657;50.122;14.468;2023-03-20T05:42:31;98357.43298755534;;;9.351873044937818;80.20202944991226
71642;BME280;60657;50.122;14.468;2023-03-20T05:45:46;98358.26914399264;;;9.378576333257037;80.10475318532082
71642;BME280;60657;50.122;14.468;2023-03-20T05:49:02;98363.24704287667;;;9.437323567559318;80.00366216525521
71642;BME280;60657;50.122;14.468;2023-03-20T05:52:18;98369.89190658627;;;9.442664225223162;80.00175478751812
71642;BME280;60657;50.122;14.468;2023-03-20T05:55:34;98363.29381177128;;;9.552147707331962;79.38376440070192
71642;BME280;60657;50.122;14.468;2023-03-20T05:58:50;98382.34076140019;;;9.437323567559318;79.55733577477683
71642;BME280;60657;50.122;14.468;2023-03-20T06:02:06;98374.03397203099;;;9.464026855878537;79.78622110322728
71642;BME280;60657;50.122;14.468;2023-03-20T06:05:22;98378.21933254878;;;9.576180666819255;79.41046768902113
71642;BME280;60657;50.122;14.468;2023-03-20T06:08:37;98377.39871787601;;;9.565499351491567;79.29983978027009
71642;BME280;60657;50.122;14.468;2023-03-20T06:11:53;98380.72116785728;;;9.613565270466161;79.15678644998856
71642;BME280;60657;50.122;14.468;2023-03-20T06:15:09;98380.74002764611;;;9.648279545281149;79.06904707408255
71642;BME280;60657;50.122;14.468;2023-03-20T06:18:26;98390.68888358546;;;9.637598229953461;79.0461585412375
71642;BME280;60657;50.122;14.468;2023-03-20T06:21:41;98394.84226035792;;;9.688334477759973;78.89547570000762
71642;BME280;60657;50.122;14.468;2023-03-20T06:24:57;98397.31481720236;;;9.66430151827268;78.96032654306859
71642;BME280;60657;50.122;14.468;2023-03-20T06:28:13;98398.11929018215;;;9.605554283970399;79.06713969634546
71642;BME280;60657;50.122;14.468;2023-03-20T06:31:29;98407.2416075056;;;9.541466392004274;78.92408636606393
71642;BME280;60657;50.122;14.468;2023-03-20T06:34:45;98405.56847034102;;;9.51209277485313;79.29602502479591
71642;BME280;60657;50.122;14.468;2023-03-20T06:38:00;98411.37289993056;;;9.5201037613489;79.36278324559396
71642;BME280;60657;50.122;14.468;2023-03-20T06:41:16;98418.84528870242;;;9.538796063172349;79.30746929121844
71642;BME280;60657;50.122;14.468;2023-03-20T06:44:32;98425.47502677386;;;9.562829022659649;79.10337987335012
71642;BME280;60657;50.122;14.468;2023-03-20T06:47:48;98417.20649315348;;;9.629587243457692;78.92790112153811
71642;BME280;60657;50.122;14.468;2023-03-20T06:51:03;98420.53565612606;;;9.661631189440754;78.71618219272145
71642;BME280;60657;50.122;14.468;2023-03-20T06:54:19;98421.36656655264;;;9.650949874113067;78.74097810330358
71642;BME280;60657;50.122;14.468;2023-03-20T06:57:35;98423.87004388482;;;9.688334477759973;78.62844281681544
71642;BME280;60657;50.122;14.468;2023-03-20T07:00:51;98429.69165282034;;;9.744411383230336;78.46822308690012
71642;BME280;60657;50.122;14.468;2023-03-20T07:04:07;98420.58622599562;;;9.768444342717629;78.35187304493782
71642;BME280;60657;50.122;14.468;2023-03-20T07:07:23;98428.88536290287;;;9.848554207675285;78.40527962157626
71642;BME280;60657;50.122;14.468;2023-03-20T07:10:43;98432.20417666697;;;9.795147631036848;78.98512245365072
71642;BME280;60657;50.122;14.468;2023-03-20T07:13:59;98439.6579479884;;;9.78446631570916;79.87396047913329
71642;BME280;60657;50.122;14.468;2023-03-20T07:17:15;98438.83204705501;;;9.779125658045317;80.28595407034409
71642;BME280;60657;50.122;14.468;2023-03-20T07:20:30;98431.30405584064;;;9.680323491264211;81.49713893339437
71642;BME280;60657;50.122;14.468;2023-03-20T07:23:46;98424.66199606849;;;9.674982833600367;82.11894407568475
71642;BME280;60657;50.122;14.468;2023-03-20T07:27:02;98434.63964326076;;;9.720378423743036;81.87861448081178
71642;BME280;60657;50.122;14.468;2023-03-20T07:30:18;98438.82181079766;;;9.771114671549554;82.03692683299
71642;BME280;60657;50.122;14.468;2023-03-20T07:33:34;98442.16089629674;;;9.80849927519646;81.39223315785458
71642;BME280;60657;50.122;14.468;2023-03-20T07:36:50;98438.83703770602;;;9.79247730220493;81.41130693522545
71642;BME280;60657;50.122;14.468;2023-03-20T07:40:06;98447.15634816662;;;9.875257495994504;81.52002746623941
71642;BME280;60657;50.122;14.468;2023-03-20T07:43:22;98440.53568315374;;;9.974059662775616;81.62111848630502
71642;BME280;60657;50.122;14.468;2023-03-20T07:46:38;98432.24360690558;;;9.99809262226291;82.58052948805981
71642;BME280;60657;50.122;14.468;2023-03-20T07:49:54;98434.76180587626;;;10.096894789044022;82.2295719844358
71642;BME280;60657;50.122;14.468;2023-03-20T07:53:10;98438.9313014276;;;10.13160906385901;81.57915617608911
71642;BME280;60657;50.122;14.468;2023-03-20T07:56:26;98442.25431140617;;;10.115587090867479;81.35599298084993
71642;BME280;60657;50.122;14.468;2023-03-20T07:59:42;98445.59514504879;;;10.281147478446634;81.10803387502861
71642;BME280;60657;50.122;14.468;2023-03-20T08:02:59;98443.94394732728;;;10.377279316395821;80.29739833676662
71642;BME280;60657;50.122;14.468;2023-03-20T08:06:15;98447.26662213595;;;10.401312275883114;80.45189593347067
71642;BME280;60657;50.122;14.468;2023-03-20T08:09:32;98457.2314612334;;;10.44670786602579;80.63881895170519
71642;BME280;60657;50.122;14.468;2023-03-20T08:12:48;98458.0730671658;;;10.537499046311133;80.78187228198672
71642;BME280;60657;50.122;14.468;2023-03-20T08:16:04;98455.58449875888;;;10.564202334630352;80.92683299000534
71642;BME280;60657;50.122;14.468;2023-03-20T08:19:20;98453.92882919079;;;10.703059433890289;80.49958037689784
71642;BME280;60657;50.122;14.468;2023-03-20T08:22:35;98451.43717623682;;;10.836575875486382;80.23826962691692
71642;BME280;60657;50.122;14.468;2023-03-20T08:25:51;98447.2759875028;;;10.956740672922862;79.93881132219424
71642;BME280;60657;50.122;14.468;2023-03-20T08:29:08;98452.24480703742;;;11.138323033493556;79.3265430685893
71642;BME280;60657;50.122;14.468;2023-03-20T08:32:24;98446.37291720796;;;11.424048218509192;78.84588387884337
71642;BME280;60657;50.122;14.468;2023-03-20T08:35:40;98448.81649701377;;;11.576256961928742;78.25268940260929
71642;BME280;60657;50.122;14.468;2023-03-20T08:38:56;98447.07636417358;;;11.784542610818647;78.30228122377356
71642;BME280;60657;50.122;14.468;2023-03-20T08:42:12;98443.70661694345;;;11.853971160448616;77.51834897383078
71642;BME280;60657;50.122;14.468;2023-03-20T08:45:28;98445.28778301229;;;12.129015030136571;76.17936980239567
71642;BME280;60657;50.122;14.468;2023-03-20T08:48:44;98443.56504199542;;;12.222476539253833;76.37201495384146
71642;BME280;60657;50.122;14.468;2023-03-20T08:52:00;98444.23173818582;;;12.481498435950257;75.51369497215228
71642;BME280;60657;50.122;14.468;2023-03-20T08:55:16;98447.4249927309;;;12.558937972075988;74.79270618753338
71642;BME280;60657;50.122;14.468;2023-03-20T08:58:32;98448.8607963303;;;12.951476310368506;74.45891508354315
71642;BME280;60657;50.122;14.468;2023-03-20T09:01:48;98445.7873037361;;;13.677805752651253;71.35179674982834
71642;BME280;60657;50.122;14.468;2023-03-20T09:05:04;98432.96677835824;;;13.854047455558096;70.64034485389486
71642;BME280;60657;50.122;14.468;2023-03-20T09:08:20;98433.39978667736;;;14.345387960631726;68.61852445258259
71642;BME280;60657;50.122;14.468;2023-03-20T09:11:36;98436.5520868486;;;14.380102235446707;68.4544899671931
71642;BME280;60657;50.122;14.468;2023-03-20T09:14:52;98431.02231011385;;;14.719233997100787;67.20515754940108
71642;BME280;60657;50.122;14.468;2023-03-20T09:18:08;98423.10121948126;;;14.959563591973755;66.6424811169604
71642;BME280;60657;50.122;14.468;2023-03-20T09:21:28;98414.6117864924;;;15.605783169298846;65.37026016632333
71642;BME280;60657;50.122;14.468;2023-03-20T09:24:44;98421.21473254712;;;15.990310521095594;63.54680704966812
71642;BME280;60657;50.122;14.468;2023-03-20T09:28:00;98414.10968690264;;;16.727321278706036;62.47486076142519
71642;BME280;60657;50.122;14.468;2023-03-20T09:31:16;98402.99096251032;;;17.103837644007022;60.86694132906081
71642;BME280;60657;50.122;14.468;2023-03-20T09:34:33;98400.8250291433;;;17.712672617685207;58.957656214236664
71642;BME280;60657;50.122;14.468;2023-03-20T09:37:49;98393.3633735295;;;17.928969253070875;57.818951705195694
71642;BME280;60657;50.122;14.468;2023-03-20T09:41:05;98403.07181947894;;;18.30548561837186;56.51049057755398
71642;BME280;60657;50.122;14.468;2023-03-20T09:44:26;98397.82180580158;;;18.641947051194016;55.64072632944228
71642;BME280;60657;50.122;14.468;2023-03-20T09:47:57;98398.87602673685;;;18.471046005951017;55.264972915236136
71642;BME280;60657;50.122;14.468;2023-03-20T09:51:23;98400.84364500945;;;18.244068055237662;55.28786144808118
71642;BME280;60657;50.122;14.468;2023-03-20T09:54:50;98390.44016638216;;;18.567177843900204;55.2993057145037
71642;BME280;60657;50.122;14.468;2023-03-20T09:58:12;98389.26702745294;;;18.831540398260472;53.78103303578241
71642;BME280;60657;50.122;14.468;2023-03-20T10:01:39;98388.68101281056;;;18.711375600823985;54.442893110551616
71642;BME280;60657;50.122;14.468;2023-03-20T10:05:08;98386.30750639406;;;18.922331578545815;53.6932936598764
71642;BME280;60657;50.122;14.468;2023-03-20T10:08:34;98379.38686094932;;;19.365606164644845;52.45540550850691
71642;BME280;60657;50.122;14.468;2023-03-20T10:11:55;98375.05964875565;;;19.27481498435951;52.463035019455255
71642;BME280;60657;50.122;14.468;2023-03-20T10:15:30;98365.45602180458;;;19.77683680476082;51.48073548485542
71642;BME280;60657;50.122;14.468;2023-03-20T10:19:00;98371.5658514849;;;19.854276340886543;50.56328679331655
71642;BME280;60657;50.122;14.468;2023-03-20T10:22:22;98367.94198331815;;;19.93705653467613;50.58999008163577
71642;BME280;60657;50.122;14.468;2023-03-20T10:25:42;98365.06793583279;;;20.257495994506755;50.04638742656596
71642;BME280;60657;50.122;14.468;2023-03-20T10:29:13;98355.79556294114;;;20.49248493171588;48.17524986648356
71642;BME280;60657;50.122;14.468;2023-03-20T10:32:40;98344.7913951433;;;21.17074845502404;46.412832837415124
71642;BME280;60657;50.122;14.468;2023-03-20T10:36:11;98343.2080770999;;;21.50186923018235;46.450980392156865
71642;BME280;60657;50.122;14.468;2023-03-20T10:39:46;98347.6945768084;;;20.9597924773022;45.777676050965134
71642;BME280;60657;50.122;14.468;2023-03-20T10:43:15;98346.04798107254;;;20.97047379262989;45.96078431372549
71642;BME280;60657;50.122;14.468;2023-03-20T10:46:37;98345.4436463686;;;20.380331120775153;46.89730678263523
71642;BME280;60657;50.122;14.468;2023-03-20T10:50:00;98345.53149739136;;;20.92774853131914;45.125352864881364
71642;BME280;60657;50.122;14.468;2023-03-20T10:53:23;98357.84837314268;;;20.16937514305333;45.581216144045165
71642;BME280;60657;50.122;14.468;2023-03-20T10:56:45;98348.09053262838;;;20.41504539559014;45.84824902723735
71642;BME280;60657;50.122;14.468;2023-03-20T11:00:12;98330.31301616198;;;20.64736400396734;44.92317082475013
71642;BME280;60657;50.122;14.468;2023-03-20T11:03:33;98341.14905608211;;;20.47379262989243;45.806286717021436
71642;BME280;60657;50.122;14.468;2023-03-20T11:06:51;98342.90481081001;;;20.759517814908065;44.92507820248722
71642;BME280;60657;50.122;14.468;2023-03-20T11:10:18;98326.61935027356;;;21.034561684596014;43.63759822995346
71642;BME280;60657;50.122;14.468;2023-03-20T11:13:35;98323.30748331969;;;21.608682383459225;43.267566948958574
71642;BME280;60657;50.122;14.468;2023-03-20T11:16:53;98309.9088792188;;;21.752880140383;43.416342412451364
71642;BME280;60657;50.122;14.468;2023-03-20T11:20:16;98302.98103745433;;;22.831692988479432;41.970550087739376
71642;BME280;60657;50.122;14.468;2023-03-20T11:23:33;98305.47062114142;;;22.954528114747845;40.932936598764016
71642;BME280;60657;50.122;14.468;2023-03-20T11:26:50;98306.88066850913;;;22.23620965896086;41.62722209506371
71642;BME280;60657;50.122;14.468;2023-03-20T11:30:10;98315.14575672497;;;21.21347371633479;42.920424200808725
71642;BME280;60657;50.122;14.468;2023-03-20T11:33:32;98325.37297810511;;;20.43907835507744;44.03051804379339
71642;BME280;60657;50.122;14.468;2023-03-20T11:36:54;98330.08772089871;;;20.198748760204467;45.041428244449534
71642;BME280;60657;50.122;14.468;2023-03-20T11:40:13;98334.97794192359;;;19.483100633249407;46.700846875715264
71642;BME280;60657;50.122;14.468;2023-03-20T11:43:31;98324.71723300274;;;19.01312275883116;46.51773861295491
71642;BME280;60657;50.122;14.468;2023-03-20T11:46:54;98318.47152359661;;;18.743419546807047;45.96650644693675
71642;BME280;60657;50.122;14.468;2023-03-20T11:50:23;98312.99828369459;;;18.700694285496297;45.53925383382925
71642;BME280;60657;50.122;14.468;2023-03-20T11:53:55;98307.37456328272;;;18.633936064698254;45.96650644693675
71642;BME280;60657;50.122;14.468;2023-03-20T11:57:25;98315.84812178958;;;18.871595330739297;46.48340581368734
71642;BME280;60657;50.122;14.468;2023-03-20T12:00:55;98308.37866324824;;;18.855573357747765;46.96215762569619
71642;BME280;60657;50.122;14.468;2023-03-20T12:04:12;98319.71782849268;;;19.02647440299077;46.8725108720531
71642;BME280;60657;50.122;14.468;2023-03-20T12:07:31;98317.89956719438;;;18.3829251544976;48.34309910734722